Time;durP1;ratioP1;P1;durP2;ratioP2;P2;SDS_P1;SDS_P2;PMS_P1;PMS_P2;Temp;Humidity;BMP_temperature;BMP_pressure;BME280_temperature;BME280_humidity;BME280_pressure;Samples;Min_cycle;Max_cycle;Signal;HPM_P1;HPM_P2
2023/01/21 00:00:39;;;;;;;50.15;28.90;;;0.20;83.60;;;;;;5077372;28;20407;-77
2023/01/21 00:03:05;;;;;;;56.78;30.23;;;0.30;83.90;;;;;;5077542;28;20412;-76
2023/01/21 00:05:30;;;;;;;55.60;29.77;;;0.20;84.30;;;;;;5062462;28;20388;-77
2023/01/21 00:07:56;;;;;;;58.85;30.83;;;0.20;85.20;;;;;;5059622;28;20379;-76
2023/01/21 00:10:22;;;;;;;49.70;29.98;;;0.20;85.40;;;;;;5062757;28;20876;-77
2023/01/21 00:12:47;;;;;;;55.63;30.50;;;0.20;85.10;;;;;;5060884;28;20416;-76
2023/01/21 00:15:13;;;;;;;49.03;29.07;;;0.20;85.10;;;;;;5080062;28;20415;-77
2023/01/21 00:17:38;;;;;;;55.20;31.88;;;0.10;85.10;;;;;;5077847;28;20410;-77
2023/01/21 00:20:05;;;;;;;51.17;29.87;;;0.10;85.60;;;;;;5079250;28;20501;-77
2023/01/21 00:22:31;;;;;;;57.95;30.90;;;0.10;85.70;;;;;;5077758;28;20528;-77
2023/01/21 00:24:57;;;;;;;59.95;31.02;;;0.10;85.90;;;;;;5078197;28;20394;-76
2023/01/21 00:27:23;;;;;;;56.25;31.40;;;0.10;86.10;;;;;;5062427;28;20387;-77
2023/01/21 00:29:48;;;;;;;53.03;30.20;;;0.10;86.40;;;;;;5076725;28;20395;-76
2023/01/21 00:32:14;;;;;;;53.33;30.10;;;0.10;86.70;;;;;;5077764;28;20391;-76
2023/01/21 00:34:40;;;;;;;54.93;31.20;;;0.10;86.90;;;;;;5078428;28;20403;-77
2023/01/21 00:37:06;;;;;;;54.75;31.90;;;0.00;87.20;;;;;;5078288;28;20407;-79
2023/01/21 00:39:32;;;;;;;55.75;31.55;;;0.00;88.00;;;;;;5078424;28;20395;-77
2023/01/21 00:41:57;;;;;;;58.23;31.10;;;-0.10;88.50;;;;;;5084624;28;20388;-76
2023/01/21 00:44:23;;;;;;;55.42;32.03;;;-0.10;89.50;;;;;;5082397;28;20387;-77
2023/01/21 00:46:48;;;;;;;57.65;31.17;;;-0.10;88.90;;;;;;5083349;28;20833;-76
2023/01/21 00:49:14;;;;;;;59.67;32.20;;;-0.10;88.60;;;;;;5062229;28;20403;-79
2023/01/21 00:51:40;;;;;;;53.60;30.67;;;0.00;87.50;;;;;;5078420;28;20419;-77
2023/01/21 00:54:05;;;;;;;55.90;31.97;;;-0.10;87.40;;;;;;5081814;28;20398;-79
2023/01/21 00:56:31;;;;;;;56.55;32.17;;;-0.10;87.90;;;;;;5063792;28;20860;-76
2023/01/21 00:58:56;;;;;;;58.00;31.40;;;-0.10;88.50;;;;;;5081912;28;20398;-76
2023/01/21 01:01:22;;;;;;;57.67;32.20;;;-0.10;88.80;;;;;;5082699;28;20392;-77
2023/01/21 01:03:48;;;;;;;63.03;32.60;;;-0.20;88.70;;;;;;5064497;28;20435;-77
2023/01/21 01:06:17;;;;;;;61.55;33.00;;;-0.20;89.40;;;;;;5063800;28;20726;-77
2023/01/21 01:08:44;;;;;;;59.03;32.13;;;-0.20;89.70;;;;;;5079343;28;20409;-77
2023/01/21 01:11:10;;;;;;;54.97;32.10;;;-0.20;90.40;;;;;;5080109;28;20475;-77
2023/01/21 01:13:36;;;;;;;60.25;33.10;;;-0.20;90.70;;;;;;5078372;28;20383;-76
2023/01/21 01:16:02;;;;;;;59.23;32.30;;;-0.20;91.40;;;;;;5080618;28;20388;-77
2023/01/21 01:18:31;;;;;;;56.83;32.55;;;-0.20;90.90;;;;;;5078911;28;20384;-77
2023/01/21 01:20:56;;;;;;;57.28;33.22;;;-0.20;91.20;;;;;;5078629;28;20997;-75
2023/01/21 01:23:22;;;;;;;59.17;32.78;;;-0.30;91.50;;;;;;5080546;28;20383;-76
2023/01/21 01:26:16;;;;;;;58.80;32.40;;;-0.20;91.70;;;;;;5080446;28;20391;-77
2023/01/21 01:28:42;;;;;;;59.33;31.63;;;-0.20;91.50;;;;;;5080960;28;20404;-77
2023/01/21 01:31:10;;;;;;;58.25;32.15;;;-0.20;91.10;;;;;;5065578;28;20896;-77
2023/01/21 01:33:35;;;;;;;57.20;32.50;;;-0.20;90.00;;;;;;5084852;28;20425;-77
2023/01/21 01:36:06;;;;;;;63.97;33.53;;;-0.30;90.10;;;;;;5093369;28;20383;-75
2023/01/21 01:38:36;;;;;;;62.33;34.05;;;-0.30;89.80;;;;;;5087700;28;20379;-75
2023/01/21 01:41:02;;;;;;;57.60;32.30;;;-0.30;90.40;;;;;;5056794;28;20422;-75
2023/01/21 01:43:49;;;;;;;61.23;33.13;;;-0.30;90.50;;;;;;5076770;28;20518;-76
2023/01/21 01:46:15;;;;;;;62.13;33.28;;;-0.30;90.60;;;;;;5074994;28;20384;-76
2023/01/21 01:48:43;;;;;;;61.90;33.20;;;-0.30;90.60;;;;;;5076956;28;20387;-79
2023/01/21 01:51:10;;;;;;;57.20;32.60;;;-0.30;90.50;;;;;;5075853;28;20384;-78
2023/01/21 01:53:39;;;;;;;54.75;31.60;;;-0.30;90.70;;;;;;5075511;28;20423;-75
2023/01/21 01:56:05;;;;;;;57.15;32.85;;;-0.30;91.20;;;;;;5057132;28;20388;-76
2023/01/21 01:58:31;;;;;;;58.58;33.03;;;-0.30;90.40;;;;;;5073574;28;20384;-77
2023/01/21 02:00:58;;;;;;;59.75;34.40;;;-0.30;89.80;;;;;;5057188;28;20384;-78
2023/01/21 02:03:43;;;;;;;62.88;33.53;;;-0.30;90.40;;;;;;5075474;28;20380;-76
2023/01/21 02:06:10;;;;;;;64.13;34.25;;;-0.30;90.60;;;;;;5075159;28;20455;-77
2023/01/21 02:08:36;;;;;;;60.78;32.95;;;-0.30;91.20;;;;;;5074751;28;20391;-77
2023/01/21 02:11:05;;;;;;;57.30;32.60;;;-0.30;91.50;;;;;;5057288;28;20396;-78
2023/01/21 02:13:32;;;;;;;58.47;32.65;;;-0.30;91.10;;;;;;5061810;28;20449;-77
2023/01/21 02:16:14;;;;;;;58.53;33.40;;;-0.40;91.30;;;;;;5060820;28;20538;-77
2023/01/21 02:18:58;;;;;;;60.42;33.03;;;-0.40;92.60;;;;;;5066356;28;20393;-77
2023/01/21 02:21:42;;;;;;;60.13;34.50;;;-0.30;92.20;;;;;;5077989;28;20407;-77
2023/01/21 02:24:28;;;;;;;57.08;32.53;;;-0.40;91.80;;;;;;5047648;28;20886;-76
2023/01/21 02:27:10;;;;;;;60.50;33.92;;;-0.30;89.70;;;;;;5054608;28;20385;-75
2023/01/21 02:29:56;;;;;;;60.63;33.97;;;-0.30;87.80;;;;;;5072643;28;20457;-79
2023/01/21 02:32:40;;;;;;;66.43;35.53;;;-0.40;88.30;;;;;;5047826;28;20404;-76
2023/01/21 02:35:22;;;;;;;53.63;31.85;;;-0.30;87.50;;;;;;5058057;28;20381;-76
2023/01/21 02:37:58;;;;;;;62.97;33.60;;;-0.30;85.50;;;;;;5054078;28;20419;-76
2023/01/21 02:40:30;;;;;;;61.63;33.45;;;-0.30;85.30;;;;;;5036933;28;20740;-75
2023/01/21 02:43:20;;;;;;;61.88;34.45;;;-0.40;85.00;;;;;;5052916;28;20468;-76
2023/01/21 02:45:51;;;;;;;66.28;35.38;;;-0.40;85.70;;;;;;5052720;28;20421;-77
2023/01/21 02:48:21;;;;;;;59.10;34.20;;;-0.40;85.50;;;;;;5067178;28;20370;-75
2023/01/21 02:50:53;;;;;;;64.65;35.08;;;-0.50;85.70;;;;;;5071163;28;20405;-75
2023/01/21 02:53:26;;;;;;;66.30;34.03;;;-0.40;85.70;;;;;;5051870;28;20428;-74
2023/01/21 02:55:53;;;;;;;59.97;32.70;;;-0.40;85.60;;;;;;5070298;28;20385;-75
2023/01/21 02:58:28;;;;;;;62.80;33.90;;;-0.40;85.10;;;;;;5070189;28;20377;-75
2023/01/21 03:01:22;;;;;;;60.08;32.72;;;-0.40;84.90;;;;;;5066269;28;20405;-75
2023/01/21 03:04:24;;;;;;;64.55;34.38;;;-0.50;84.90;;;;;;5062558;28;20385;-74
2023/01/21 03:06:55;;;;;;;62.83;32.97;;;-0.50;84.40;;;;;;5057730;28;20377;-75
2023/01/21 03:09:28;;;;;;;63.40;34.63;;;-0.50;84.60;;;;;;5040338;28;20396;-75
2023/01/21 03:12:12;;;;;;;64.65;33.55;;;-0.60;84.50;;;;;;5040591;28;20619;-75
2023/01/21 03:18:06;;;;;;;69.03;35.17;;;-0.60;85.70;;;;;;5060355;28;20388;-74
2023/01/21 03:20:43;;;;;;;65.97;34.97;;;-0.60;86.30;;;;;;5059375;28;20475;-76
2023/01/21 03:23:16;;;;;;;67.63;35.97;;;-0.60;87.00;;;;;;5051662;28;20779;-75
2023/01/21 03:25:42;;;;;;;65.35;35.70;;;-0.60;87.10;;;;;;5051191;28;20468;-76
2023/01/21 03:28:12;;;;;;;73.90;35.97;;;-0.60;87.40;;;;;;5053563;28;20396;-75
2023/01/21 03:30:42;;;;;;;69.10;34.70;;;-0.60;88.10;;;;;;5052673;28;20395;-75
2023/01/21 03:33:10;;;;;;;63.50;35.47;;;-0.60;88.10;;;;;;5034972;28;20397;-77
2023/01/21 03:35:43;;;;;;;69.63;36.85;;;-0.60;88.60;;;;;;5054579;28;20378;-75
2023/01/21 03:38:19;;;;;;;65.50;34.80;;;-0.60;89.10;;;;;;5052012;28;20472;-76
2023/01/21 03:41:00;;;;;;;70.95;38.53;;;-0.60;90.30;;;;;;5051832;28;20492;-76
2023/01/21 03:43:26;;;;;;;72.18;38.20;;;-0.70;90.30;;;;;;5051798;28;20427;-76
2023/01/21 03:46:08;;;;;;;68.93;36.67;;;-0.70;91.10;;;;;;5051951;28;20377;-75
2023/01/21 03:48:59;;;;;;;72.65;38.42;;;-0.70;91.50;;;;;;5051354;28;20384;-76
2023/01/21 03:51:33;;;;;;;66.57;36.15;;;-0.70;92.30;;;;;;5051240;28;20723;-74
2023/01/21 03:53:59;;;;;;;75.68;39.15;;;-0.70;92.50;;;;;;5051217;28;20405;-75
2023/01/21 03:56:25;;;;;;;73.45;37.33;;;-0.70;92.00;;;;;;5033415;28;20469;-75
2023/01/21 03:58:52;;;;;;;76.18;38.63;;;-0.80;91.80;;;;;;5050998;28;20416;-74
2023/01/21 04:01:17;;;;;;;80.43;38.60;;;-0.80;92.20;;;;;;5051132;28;20374;-75
2023/01/21 04:03:43;;;;;;;74.93;40.53;;;-0.80;92.20;;;;;;5052075;28;20831;-75
2023/01/21 04:06:13;;;;;;;76.65;39.00;;;-0.80;92.60;;;;;;5035232;28;20391;-76
2023/01/21 04:08:39;;;;;;;76.50;39.13;;;-0.80;92.50;;;;;;5061739;28;20535;-76
2023/01/21 04:11:05;;;;;;;73.80;38.67;;;-0.80;92.70;;;;;;5066602;28;20378;-75
2023/01/21 04:13:30;;;;;;;66.80;37.33;;;-0.80;92.60;;;;;;5053291;28;20782;-75
2023/01/21 04:15:56;;;;;;;73.90;39.38;;;-0.80;91.60;;;;;;5051616;28;20385;-76
2023/01/21 04:18:21;;;;;;;75.03;37.93;;;-0.80;91.50;;;;;;5033685;28;20392;-76
2023/01/21 04:20:47;;;;;;;77.90;39.27;;;-0.80;91.50;;;;;;5053123;28;20416;-75
2023/01/21 04:23:12;;;;;;;69.30;37.92;;;-0.80;91.20;;;;;;5052477;28;20381;-77
2023/01/21 04:25:38;;;;;;;73.07;38.42;;;-0.90;91.20;;;;;;5055844;28;20381;-76
2023/01/21 04:28:03;;;;;;;69.97;36.23;;;-0.90;90.90;;;;;;5057974;28;20394;-76
2023/01/21 04:30:29;;;;;;;74.93;38.97;;;-0.90;90.80;;;;;;5059685;28;20382;-77
2023/01/21 04:32:55;;;;;;;71.72;38.05;;;-0.90;91.40;;;;;;5058188;28;20388;-77
2023/01/21 04:35:20;;;;;;;77.13;39.10;;;-0.90;91.30;;;;;;5060255;28;20461;-77
2023/01/21 04:37:46;;;;;;;70.20;37.53;;;-0.90;91.50;;;;;;5039915;28;20389;-75
2023/01/21 04:40:11;;;;;;;77.95;38.35;;;-0.90;91.50;;;;;;5056989;28;20413;-75
2023/01/21 04:42:37;;;;;;;71.43;36.72;;;-0.90;90.80;;;;;;5056692;28;20381;-76
2023/01/21 04:45:03;;;;;;;74.07;38.00;;;-0.90;90.10;;;;;;5040757;28;20416;-76
2023/01/21 04:47:29;;;;;;;73.95;37.55;;;-0.90;89.90;;;;;;5057237;28;20386;-75
2023/01/21 04:49:54;;;;;;;72.77;37.00;;;-0.90;90.10;;;;;;5057514;28;20389;-77
2023/01/21 04:52:20;;;;;;;71.13;38.10;;;-0.90;90.40;;;;;;5056860;28;20385;-77
2023/01/21 04:54:45;;;;;;;69.75;38.00;;;-0.90;90.40;;;;;;5057173;28;20396;-77
2023/01/21 04:57:11;;;;;;;74.05;38.53;;;-0.90;90.70;;;;;;5057457;28;20476;-77
2023/01/21 04:59:36;;;;;;;74.17;37.33;;;-0.90;90.30;;;;;;5055525;28;20409;-77
2023/01/21 05:02:02;;;;;;;72.28;38.88;;;-0.90;90.00;;;;;;5055234;28;20405;-77
2023/01/21 05:04:28;;;;;;;69.43;37.25;;;-0.90;90.30;;;;;;5055012;28;20400;-76
2023/01/21 05:06:54;;;;;;;68.77;37.40;;;-0.90;90.50;;;;;;5056063;28;20380;-76
2023/01/21 05:09:20;;;;;;;71.35;36.95;;;-0.90;89.50;;;;;;5058719;28;20403;-76
2023/01/21 05:11:45;;;;;;;72.97;38.70;;;-0.90;87.60;;;;;;5058745;28;20453;-76
2023/01/21 05:14:11;;;;;;;77.07;39.72;;;-0.90;87.40;;;;;;5059223;28;20750;-76
2023/01/21 05:16:36;;;;;;;72.00;37.43;;;-0.90;87.50;;;;;;5057755;28;20768;-75
2023/01/21 05:19:02;;;;;;;71.37;37.57;;;-0.90;87.80;;;;;;5055359;28;20421;-76
2023/01/21 05:21:27;;;;;;;74.85;38.10;;;-0.90;87.80;;;;;;5055405;28;20393;-76
2023/01/21 05:23:54;;;;;;;74.38;39.15;;;-0.90;87.40;;;;;;5054221;28;20404;-75
2023/01/21 05:26:19;;;;;;;70.30;37.10;;;-0.90;87.00;;;;;;5035304;28;20389;-75
2023/01/21 05:28:45;;;;;;;70.03;37.77;;;-0.90;86.30;;;;;;5052980;28;20389;-76
2023/01/21 05:31:10;;;;;;;61.93;35.00;;;-0.90;86.20;;;;;;5052911;28;20925;-75
2023/01/21 05:33:36;;;;;;;72.07;35.90;;;-0.80;85.60;;;;;;5053183;28;20451;-76
2023/01/21 05:36:02;;;;;;;69.50;37.05;;;-0.90;85.20;;;;;;5052439;28;20396;-75
2023/01/21 05:38:28;;;;;;;73.95;37.25;;;-0.90;85.30;;;;;;5052445;28;20389;-75
2023/01/21 05:40:58;;;;;;;64.83;35.30;;;-0.90;85.90;;;;;;5051870;28;20538;-75
2023/01/21 05:43:24;;;;;;;66.80;35.58;;;-0.90;84.80;;;;;;5052804;28;20381;-76
2023/01/21 05:45:50;;;;;;;73.55;37.10;;;-1.00;83.10;;;;;;5052641;28;20386;-76
2023/01/21 05:48:15;;;;;;;71.70;37.22;;;-1.00;84.00;;;;;;5035328;28;20397;-78
2023/01/21 05:50:41;;;;;;;72.70;37.90;;;-1.00;85.60;;;;;;5034660;28;20754;-76
2023/01/21 05:53:06;;;;;;;73.80;38.80;;;-1.00;86.70;;;;;;5034966;28;20599;-75
2023/01/21 05:55:32;;;;;;;77.60;38.78;;;-1.00;87.80;;;;;;5052724;28;20409;-76
2023/01/21 05:57:57;;;;;;;71.87;38.20;;;-1.00;87.50;;;;;;5052465;28;20393;-76
2023/01/21 06:00:23;;;;;;;74.03;38.93;;;-1.00;87.20;;;;;;5052096;28;20542;-76
2023/01/21 06:02:48;;;;;;;69.82;37.90;;;-1.00;87.40;;;;;;5033824;28;20890;-75
2023/01/21 06:05:14;;;;;;;71.82;37.40;;;-1.00;88.20;;;;;;5034034;28;20488;-75
2023/01/21 06:07:40;;;;;;;71.07;38.53;;;-1.00;89.20;;;;;;5051814;28;20389;-76
2023/01/21 06:10:06;;;;;;;75.20;39.25;;;-1.00;88.90;;;;;;5052345;28;20760;-75
2023/01/21 06:12:31;;;;;;;72.25;39.63;;;-1.10;89.70;;;;;;5051626;28;20415;-76
2023/01/21 06:14:59;;;;;;;78.28;39.05;;;-1.10;89.90;;;;;;5034398;28;20389;-75
2023/01/21 06:17:25;;;;;;;70.38;37.40;;;-1.00;89.20;;;;;;5034052;28;20509;-76
2023/01/21 06:19:51;;;;;;;66.83;36.67;;;-1.00;88.50;;;;;;5051144;28;20394;-76
2023/01/21 06:22:17;;;;;;;73.80;39.08;;;-1.00;87.90;;;;;;5051423;28;20385;-76
2023/01/21 06:24:43;;;;;;;71.60;36.80;;;-1.10;89.10;;;;;;5054027;28;20750;-76
2023/01/21 06:27:09;;;;;;;69.35;38.15;;;-1.10;90.30;;;;;;5053101;28;20439;-77
2023/01/21 06:29:34;;;;;;;76.77;38.57;;;-1.10;89.30;;;;;;5035537;28;20719;-76
2023/01/21 06:32:00;;;;;;;72.95;37.35;;;-1.10;88.90;;;;;;5051574;28;20382;-76
2023/01/21 06:34:26;;;;;;;70.07;38.13;;;-1.10;88.90;;;;;;5057969;28;20385;-76
2023/01/21 06:36:51;;;;;;;69.53;38.60;;;-1.10;88.40;;;;;;5051607;28;20389;-75
2023/01/21 06:39:17;;;;;;;73.75;38.63;;;-1.20;88.60;;;;;;5051883;28;20401;-76
2023/01/21 06:41:43;;;;;;;71.35;37.00;;;-1.10;89.50;;;;;;5054563;28;20388;-75
2023/01/21 06:44:08;;;;;;;70.53;38.28;;;-1.00;87.70;;;;;;5047357;28;20381;-74
2023/01/21 06:46:34;;;;;;;69.53;37.38;;;-1.10;86.50;;;;;;5062622;28;20397;-76
2023/01/21 06:48:59;;;;;;;74.30;37.13;;;-1.10;87.00;;;;;;5051440;28;20389;-76
2023/01/21 06:51:25;;;;;;;69.10;37.37;;;-1.10;86.90;;;;;;5033089;28;20397;-74
2023/01/21 06:53:51;;;;;;;69.22;38.10;;;-1.20;88.60;;;;;;5051270;28;20468;-76
2023/01/21 06:56:16;;;;;;;68.47;38.15;;;-1.30;88.50;;;;;;5050928;28;20400;-75
2023/01/21 06:58:42;;;;;;;70.30;37.67;;;-1.20;90.80;;;;;;5051109;28;20384;-75
2023/01/21 07:01:07;;;;;;;75.17;39.27;;;-1.10;89.20;;;;;;5033966;28;20390;-75
2023/01/21 07:03:33;;;;;;;76.95;38.65;;;-1.20;89.80;;;;;;5052835;28;20434;-77
2023/01/21 07:05:58;;;;;;;74.32;38.63;;;-1.10;89.10;;;;;;5052667;28;20397;-76
2023/01/21 07:08:24;;;;;;;75.40;39.60;;;-1.10;87.80;;;;;;5034894;28;20404;-75
2023/01/21 07:10:49;;;;;;;75.83;39.37;;;-1.20;87.60;;;;;;5052374;28;20416;-77
2023/01/21 07:13:15;;;;;;;69.55;37.65;;;-1.10;89.40;;;;;;5052651;28;20390;-76
2023/01/21 07:15:41;;;;;;;73.05;39.20;;;-1.10;88.30;;;;;;5035996;28;20424;-75
2023/01/21 07:18:06;;;;;;;77.87;38.90;;;-1.10;87.80;;;;;;5053513;28;20378;-76
2023/01/21 07:20:32;;;;;;;72.78;38.65;;;-1.10;85.90;;;;;;5053022;28;20436;-76
2023/01/21 07:22:58;;;;;;;76.55;38.58;;;-1.00;87.00;;;;;;5051630;28;20405;-75
2023/01/21 07:25:24;;;;;;;77.33;39.00;;;-1.00;86.90;;;;;;5052873;28;20377;-76
2023/01/21 07:27:49;;;;;;;74.75;39.97;;;-1.00;88.10;;;;;;5052507;28;20415;-76
2023/01/21 07:30:19;;;;;;;81.82;41.63;;;-0.90;88.20;;;;;;5053614;28;20385;-77
2023/01/21 07:32:46;;;;;;;71.78;39.95;;;-1.00;88.40;;;;;;5034632;28;21569;-76
2023/01/21 07:35:12;;;;;;;77.82;40.47;;;-1.00;86.90;;;;;;5053010;28;20428;-77
2023/01/21 07:37:39;;;;;;;86.10;40.27;;;-1.00;85.90;;;;;;5053537;28;20397;-76
2023/01/21 07:40:05;;;;;;;77.07;39.83;;;-0.90;85.60;;;;;;5052443;28;20493;-77
2023/01/21 07:42:31;;;;;;;82.43;40.60;;;-0.90;86.20;;;;;;5050443;28;20437;-76
2023/01/21 07:44:58;;;;;;;80.73;39.50;;;-1.00;85.50;;;;;;5032986;28;20389;-75
2023/01/21 07:47:24;;;;;;;84.93;40.92;;;-1.00;85.80;;;;;;5050636;28;20377;-75
2023/01/21 07:49:49;;;;;;;87.47;43.00;;;-1.00;86.70;;;;;;5050737;28;20893;-75
2023/01/21 07:52:15;;;;;;;85.68;42.55;;;-1.00;87.50;;;;;;5050874;28;20390;-76
2023/01/21 07:54:41;;;;;;;86.68;43.13;;;-1.00;88.00;;;;;;5051252;28;20388;-76
2023/01/21 07:57:07;;;;;;;88.87;43.10;;;-1.00;88.20;;;;;;5034207;28;20385;-76
2023/01/21 07:59:32;;;;;;;89.50;43.40;;;-1.00;88.90;;;;;;5054764;28;20409;-76
2023/01/21 08:01:58;;;;;;;85.68;43.00;;;-1.10;88.50;;;;;;5055221;28;20408;-76
2023/01/21 08:04:24;;;;;;;88.60;42.90;;;-1.00;90.00;;;;;;5055387;28;20722;-77
2023/01/21 08:06:55;;;;;;;89.45;43.55;;;-1.00;89.00;;;;;;5055802;28;20388;-76
2023/01/21 08:09:24;;;;;;;84.47;43.22;;;-0.90;88.90;;;;;;5055413;28;20862;-75
2023/01/21 08:11:50;;;;;;;89.55;44.05;;;-0.90;90.00;;;;;;5054828;28;20527;-75
2023/01/21 08:14:15;;;;;;;82.68;41.97;;;-0.80;88.30;;;;;;5055215;28;20392;-76
2023/01/21 08:16:41;;;;;;;82.40;43.03;;;-0.70;85.60;;;;;;5054216;28;20859;-76
2023/01/21 08:19:06;;;;;;;86.60;43.13;;;-0.70;85.50;;;;;;5056422;28;20427;-77
2023/01/21 08:21:32;;;;;;;83.07;42.35;;;-0.70;85.70;;;;;;5057692;28;20389;-75
2023/01/21 08:23:58;;;;;;;91.85;42.75;;;-0.60;85.10;;;;;;5058698;28;20747;-77
2023/01/21 08:26:23;;;;;;;82.80;43.20;;;-0.50;83.90;;;;;;5057039;28;20874;-76
2023/01/21 08:28:51;;;;;;;78.40;41.47;;;-0.40;82.70;;;;;;5056464;28;20916;-76
2023/01/21 08:31:17;;;;;;;81.80;41.50;;;-0.40;82.40;;;;;;5056701;28;20382;-76
2023/01/21 08:33:42;;;;;;;75.28;40.10;;;-0.30;79.80;;;;;;5038124;28;20455;-76
2023/01/21 08:36:08;;;;;;;76.80;39.60;;;-0.20;78.80;;;;;;5055114;28;20491;-76
2023/01/21 08:38:34;;;;;;;81.53;40.63;;;-0.10;78.50;;;;;;5054808;28;20796;-75
2023/01/21 08:41:00;;;;;;;76.03;40.78;;;-0.10;78.40;;;;;;5055140;28;20416;-76
2023/01/21 08:43:26;;;;;;;75.97;37.78;;;0.00;78.20;;;;;;5039629;28;20403;-76
2023/01/21 08:45:55;;;;;;;71.95;39.28;;;0.00;76.10;;;;;;5056001;28;20398;-76
2023/01/21 08:48:21;;;;;;;71.82;38.85;;;0.10;76.20;;;;;;5054514;28;20526;-76
2023/01/21 08:50:46;;;;;;;69.50;37.30;;;0.20;73.20;;;;;;5054233;28;20476;-76
2023/01/21 08:53:12;;;;;;;70.33;39.40;;;0.30;73.30;;;;;;5055357;28;20385;-75
2023/01/21 08:55:37;;;;;;;68.10;38.13;;;0.30;71.50;;;;;;5055384;28;20464;-77
2023/01/21 08:58:03;;;;;;;73.25;37.97;;;0.30;70.40;;;;;;5054954;28;20918;-77
2023/01/21 09:00:29;;;;;;;68.27;36.67;;;0.40;69.60;;;;;;5053896;28;20449;-76
2023/01/21 09:02:54;;;;;;;70.47;39.17;;;0.50;69.10;;;;;;5055702;28;20423;-75
2023/01/21 09:05:20;;;;;;;73.38;37.88;;;0.60;69.60;;;;;;5057930;28;20382;-75
2023/01/21 09:07:46;;;;;;;70.30;36.33;;;0.70;68.70;;;;;;5056315;28;20732;-76
2023/01/21 09:10:11;;;;;;;70.53;38.47;;;0.80;65.00;;;;;;5057191;28;20381;-74
2023/01/21 09:12:39;;;;;;;72.53;38.78;;;0.80;66.10;;;;;;5056543;28;20461;-76
2023/01/21 09:15:05;;;;;;;72.68;38.70;;;0.70;67.00;;;;;;5062418;28;20378;-76
2023/01/21 09:17:31;;;;;;;76.00;38.83;;;0.70;68.20;;;;;;5052843;28;20389;-76
2023/01/21 09:19:56;;;;;;;71.53;38.27;;;0.90;67.20;;;;;;5055991;28;20489;-74
2023/01/21 09:22:22;;;;;;;74.70;39.70;;;1.10;65.90;;;;;;5053983;28;20408;-77
2023/01/21 09:24:47;;;;;;;74.72;39.20;;;1.20;65.10;;;;;;5056520;28;20392;-76
2023/01/21 09:27:13;;;;;;;77.82;38.97;;;1.20;67.30;;;;;;5057105;28;20420;-77
2023/01/21 09:29:38;;;;;;;76.30;38.73;;;1.30;64.20;;;;;;5058263;28;20478;-75
2023/01/21 09:32:04;;;;;;;75.23;38.23;;;1.30;62.30;;;;;;5056697;28;20409;-76
2023/01/21 09:34:30;;;;;;;76.50;38.23;;;1.40;63.80;;;;;;5058054;28;20727;-77
2023/01/21 09:36:55;;;;;;;67.35;37.35;;;1.50;61.20;;;;;;5058574;28;20470;-76
2023/01/21 09:39:21;;;;;;;73.20;38.90;;;1.50;61.50;;;;;;5055025;28;20458;-75
2023/01/21 09:41:55;;;;;;;71.73;37.50;;;1.60;61.10;;;;;;5053643;28;20389;-76
2023/01/21 09:44:24;;;;;;;72.53;36.95;;;1.60;60.60;;;;;;5036625;28;20389;-77
2023/01/21 09:47:27;;;;;;;74.25;38.50;;;1.60;60.90;;;;;;5053895;28;20753;-76
2023/01/21 09:50:01;;;;;;;70.97;36.50;;;1.60;61.60;;;;;;5036609;28;20398;-76
2023/01/21 09:52:45;;;;;;;65.65;35.72;;;1.60;61.10;;;;;;5054554;28;20392;-77
2023/01/21 09:55:31;;;;;;;69.93;35.55;;;1.60;60.70;;;;;;5057279;28;20409;-76
2023/01/21 09:58:17;;;;;;;69.22;36.40;;;1.50;62.20;;;;;;5054657;28;20470;-77
2023/01/21 10:00:53;;;;;;;69.90;35.83;;;1.60;62.50;;;;;;5053299;28;20757;-75
2023/01/21 10:03:43;;;;;;;69.38;35.95;;;1.60;62.70;;;;;;5053499;28;20886;-76
2023/01/21 10:06:15;;;;;;;67.17;34.50;;;1.50;63.80;;;;;;5053546;28;20373;-76
2023/01/21 10:08:59;;;;;;;78.20;36.13;;;1.40;64.40;;;;;;5052900;28;20920;-75
2023/01/21 10:11:28;;;;;;;67.80;35.60;;;1.30;66.10;;;;;;5053803;28;20385;-77
2023/01/21 10:13:53;;;;;;;76.80;36.50;;;1.20;67.50;;;;;;5053421;28;20404;-76
2023/01/21 10:16:32;;;;;;;66.40;34.03;;;1.40;68.30;;;;;;5053464;28;20845;-75
2023/01/21 10:19:00;;;;;;;68.78;34.30;;;1.50;67.00;;;;;;5052391;28;20866;-76
2023/01/21 10:21:37;;;;;;;70.93;35.57;;;1.40;66.70;;;;;;5053016;28;20501;-76
2023/01/21 10:24:11;;;;;;;68.75;35.05;;;1.50;68.50;;;;;;5052382;28;20434;-76
2023/01/21 10:26:36;;;;;;;72.45;35.83;;;1.60;66.30;;;;;;5034571;28;20396;-75
2023/01/21 10:29:02;;;;;;;73.10;37.67;;;1.60;67.90;;;;;;5053106;28;20390;-76
2023/01/21 10:31:39;;;;;;;67.70;35.30;;;1.70;66.70;;;;;;5054275;28;20473;-76
2023/01/21 10:34:13;;;;;;;70.72;34.22;;;1.80;64.60;;;;;;5054586;28;20381;-76
2023/01/21 10:36:39;;;;;;;65.60;35.60;;;1.90;64.40;;;;;;5052342;28;20392;-75
2023/01/21 10:39:21;;;;;;;65.17;34.30;;;2.00;64.80;;;;;;5052170;28;20500;-75
2023/01/21 10:42:26;;;;;;;70.30;35.80;;;2.10;63.30;;;;;;5052670;28;20408;-77
2023/01/21 10:45:07;;;;;;;67.78;34.38;;;2.10;62.60;;;;;;5053110;28;20374;-76
2023/01/21 10:48:02;;;;;;;70.50;36.15;;;2.20;62.30;;;;;;5036037;28;20909;-75
2023/01/21 10:50:53;;;;;;;66.75;34.58;;;2.30;59.40;;;;;;5054529;28;20393;-75
2023/01/21 10:53:35;;;;;;;72.22;36.85;;;2.20;61.50;;;;;;5053003;28;20381;-76
2023/01/21 10:56:32;;;;;;;70.68;35.90;;;2.30;61.10;;;;;;5035795;28;20393;-75
2023/01/21 10:59:05;;;;;;;68.20;34.63;;;2.40;60.60;;;;;;5052399;28;20441;-76
2023/01/21 11:02:03;;;;;;;73.90;36.50;;;2.50;59.30;;;;;;5053257;28;20430;-77
2023/01/21 11:04:29;;;;;;;70.50;35.95;;;2.50;59.20;;;;;;5052401;28;20432;-76
2023/01/21 11:07:00;;;;;;;68.05;35.38;;;2.70;59.70;;;;;;5052594;28;20418;-77
2023/01/21 11:09:28;;;;;;;71.68;36.20;;;2.60;59.30;;;;;;5052501;28;20944;-75
2023/01/21 11:11:54;;;;;;;72.03;35.33;;;2.60;58.90;;;;;;5051680;28;20401;-75
2023/01/21 11:14:20;;;;;;;73.47;35.70;;;2.50;60.40;;;;;;5051486;28;20495;-75
2023/01/21 11:16:48;;;;;;;72.53;35.10;;;2.60;60.90;;;;;;5052372;28;20392;-76
2023/01/21 11:19:27;;;;;;;66.10;35.20;;;2.70;59.40;;;;;;5034836;28;20766;-77
2023/01/21 11:22:20;;;;;;;70.53;32.33;;;2.70;59.40;;;;;;5035216;28;20405;-77
2023/01/21 11:24:48;;;;;;;71.10;35.95;;;2.50;58.20;;;;;;5037720;28;20393;-75
2023/01/21 11:27:36;;;;;;;71.50;36.23;;;2.50;60.90;;;;;;5053960;28;20389;-75
2023/01/21 11:30:04;;;;;;;70.05;34.60;;;2.50;59.50;;;;;;5055488;28;20762;-76
2023/01/21 11:32:30;;;;;;;73.43;36.33;;;2.50;59.70;;;;;;5057203;28;20937;-75
2023/01/21 11:35:19;;;;;;;69.35;34.50;;;2.60;60.70;;;;;;5060061;28;20750;-75
2023/01/21 11:37:45;;;;;;;69.22;34.53;;;2.70;59.10;;;;;;5061220;28;20456;-75
2023/01/21 11:40:11;;;;;;;68.65;34.83;;;2.80;59.20;;;;;;5060372;28;20401;-76
2023/01/21 11:42:49;;;;;;;67.87;33.87;;;3.00;58.30;;;;;;5065030;28;20480;-76
2023/01/21 11:45:36;;;;;;;67.07;34.03;;;3.00;57.50;;;;;;5065545;28;20452;-74
2023/01/21 11:48:18;;;;;;;64.88;34.30;;;3.10;55.90;;;;;;5071845;28;20412;-76
2023/01/21 11:50:46;;;;;;;66.13;33.90;;;3.10;56.10;;;;;;5058185;28;20373;-75
2023/01/21 11:53:17;;;;;;;66.43;33.67;;;3.10;56.00;;;;;;5057552;28;20454;-77
2023/01/21 11:55:52;;;;;;;62.22;32.70;;;3.30;56.70;;;;;;5055750;28;20397;-77
2023/01/21 11:58:39;;;;;;;64.18;32.88;;;3.50;54.50;;;;;;5056861;28;20896;-75
2023/01/21 12:01:20;;;;;;;66.63;32.22;;;3.60;50.90;;;;;;5056089;28;20540;-75
2023/01/21 12:03:51;;;;;;;62.63;32.58;;;3.60;51.10;;;;;;5056347;28;20424;-77
2023/01/21 12:06:24;;;;;;;58.72;31.40;;;3.80;52.10;;;;;;5058405;28;20404;-77
2023/01/21 12:08:53;;;;;;;58.83;31.38;;;4.10;48.90;;;;;;5056294;28;20389;-76
2023/01/21 12:11:22;;;;;;;58.47;31.52;;;4.20;48.30;;;;;;5038267;28;20393;-77
2023/01/21 12:13:58;;;;;;;61.70;32.03;;;4.20;47.30;;;;;;5055450;28;20409;-76
2023/01/21 12:16:34;;;;;;;53.40;28.48;;;4.20;47.50;;;;;;5037964;28;20746;-76
2023/01/21 12:19:27;;;;;;;59.95;32.05;;;4.20;46.20;;;;;;5055186;28;20377;-77
2023/01/21 12:22:14;;;;;;;65.07;32.30;;;4.20;47.20;;;;;;5055805;28;20409;-76
2023/01/21 12:25:21;;;;;;;59.25;30.95;;;4.20;48.10;;;;;;5055683;28;20385;-77
2023/01/21 12:27:59;;;;;;;58.33;30.45;;;4.20;46.80;;;;;;5036704;28;20377;-74
2023/01/21 12:30:54;;;;;;;61.85;31.42;;;4.30;45.90;;;;;;5054795;28;20386;-78
2023/01/21 12:33:28;;;;;;;59.63;30.02;;;4.20;47.00;;;;;;5055059;28;20745;-75
2023/01/21 12:36:17;;;;;;;57.67;29.73;;;4.30;45.80;;;;;;5054912;28;20391;-74
2023/01/21 12:38:48;;;;;;;60.03;29.20;;;4.30;46.00;;;;;;5053658;28;20511;-74
2023/01/21 12:41:21;;;;;;;56.45;29.02;;;4.40;45.70;;;;;;5053597;28;20377;-75
2023/01/21 12:43:53;;;;;;;51.25;26.60;;;4.30;46.30;;;;;;5053089;28;20390;-74
2023/01/21 12:46:33;;;;;;;53.33;27.88;;;4.30;44.20;;;;;;5034592;28;20385;-75
2023/01/21 12:49:36;;;;;;;54.03;25.13;;;4.20;46.00;;;;;;5054360;28;20381;-76